createdAt,value
2018-05-25T00:02:32.501Z,13.6
2018-05-25T00:08:27.466Z,13.07
2018-05-25T00:14:22.505Z,12.38
2018-05-25T00:20:17.490Z,11.4
2018-05-25T00:26:12.535Z,12.75
2018-05-25T00:32:07.523Z,14.06
2018-05-25T00:38:02.831Z,12.94
2018-05-25T00:43:57.514Z,15.22
2018-05-25T00:49:52.513Z,14.14
2018-05-25T00:55:47.514Z,15.97
2018-05-25T01:01:42.536Z,14.79
2018-05-25T01:07:37.514Z,14.72
2018-05-25T01:13:32.540Z,15.45
2018-05-25T01:19:27.535Z,15.23
2018-05-25T01:25:22.583Z,16.02
2018-05-25T01:31:17.639Z,18.07
2018-05-25T01:37:12.529Z,18.45
2018-05-25T01:43:07.545Z,16.97
2018-05-25T01:49:02.554Z,17.36
2018-05-25T01:54:57.545Z,19.07
2018-05-25T02:00:52.541Z,18.11
2018-05-25T02:06:47.585Z,18.64
2018-05-25T02:12:42.555Z,19.32
2018-05-25T02:18:37.565Z,19.23
2018-05-25T02:24:32.580Z,21.17
2018-05-25T02:30:27.577Z,20.01
2018-05-25T02:36:22.573Z,18.65
2018-05-25T02:42:17.604Z,19.65
2018-05-25T02:48:12.655Z,19
2018-05-25T02:54:07.601Z,20.88
2018-05-25T03:00:02.581Z,20.11
2018-05-25T03:05:57.598Z,19.48
2018-05-25T03:11:52.600Z,18.21
2018-05-25T03:17:47.593Z,19.12
2018-05-25T03:23:42.612Z,19.23
2018-05-25T03:29:37.589Z,17.73
2018-05-25T03:35:32.603Z,17.92
2018-05-25T03:41:27.611Z,17.87
2018-05-25T03:47:22.627Z,20.38
2018-05-25T03:53:17.584Z,18.49
2018-05-25T03:59:12.598Z,17.98
2018-05-25T04:05:07.624Z,17.4
2018-05-25T04:11:02.625Z,21.59
2018-05-25T04:16:57.614Z,20.79
2018-05-25T04:22:52.645Z,20.06
2018-05-25T04:28:47.669Z,17.52
2018-05-25T04:34:42.614Z,19.05
2018-05-25T04:40:37.640Z,17.16
2018-05-25T04:46:32.636Z,17.01
2018-05-25T04:52:27.694Z,17.55
2018-05-25T04:58:22.640Z,14.84
2018-05-25T05:04:17.647Z,8.94
2018-05-25T05:10:12.668Z,14.51
2018-05-25T05:16:07.707Z,20.78
2018-05-25T05:22:02.642Z,17.82
2018-05-25T05:27:57.732Z,18.21
2018-05-25T05:33:52.743Z,19.12
2018-05-25T05:39:47.680Z,21.67
2018-05-25T05:45:42.633Z,21.05
2018-05-25T05:51:37.687Z,21.46
2018-05-25T05:57:32.740Z,23.3
2018-05-25T06:03:27.699Z,23.5
2018-05-25T06:09:22.678Z,21.5
2018-05-25T06:15:17.690Z,23.78
2018-05-25T06:21:12.677Z,26.67
2018-05-25T06:27:07.664Z,27.9
2018-05-25T06:33:02.701Z,28.81
2018-05-25T06:38:57.695Z,28.26
2018-05-25T06:44:52.697Z,26.73
2018-05-25T06:50:47.745Z,33.91
2018-05-25T06:56:42.703Z,34.68
2018-05-25T07:02:37.737Z,33.37
2018-05-25T07:08:32.716Z,35.73
2018-05-25T07:14:27.799Z,27.85
2018-05-25T07:20:22.727Z,30.33
2018-05-25T07:26:17.770Z,31.56
2018-05-25T07:32:12.722Z,33.1
2018-05-25T07:38:07.767Z,33.72
2018-05-25T07:44:02.731Z,39.73
2018-05-25T07:49:57.743Z,42.14
2018-05-25T07:55:52.763Z,37.09
2018-05-25T08:01:47.729Z,35.89
2018-05-25T08:07:42.753Z,37.47
2018-05-25T08:13:37.797Z,33.67
2018-05-25T08:19:32.827Z,35.49
2018-05-25T08:25:27.754Z,25.36
2018-05-25T08:31:22.766Z,29.35
2018-05-25T08:37:17.778Z,29.15
2018-05-25T08:43:12.849Z,30.98
2018-05-25T08:49:07.806Z,27.06
2018-05-25T08:55:02.848Z,38.48
2018-05-25T09:00:57.807Z,28.83
2018-05-25T09:06:52.806Z,29.34
2018-05-25T09:12:47.786Z,29.96
2018-05-25T09:18:42.784Z,29.6
2018-05-25T09:24:37.778Z,34.34
2018-05-25T09:30:32.785Z,33.41
2018-05-25T09:36:27.784Z,33.79
2018-05-25T09:42:22.790Z,40.29
2018-05-25T09:48:17.784Z,27.53
2018-05-25T09:54:12.829Z,28.46
2018-05-25T10:00:07.859Z,38.08
2018-05-25T10:06:02.823Z,39.75
2018-05-25T10:11:57.821Z,34.8
2018-05-25T10:17:52.821Z,29.19
2018-05-25T10:23:47.827Z,30.12
2018-05-25T10:29:42.819Z,37.33
2018-05-25T10:35:37.874Z,29.72
2018-05-25T10:41:32.846Z,32.66
2018-05-25T10:47:27.859Z,32.47
2018-05-25T10:53:22.898Z,33.4
2018-05-25T10:59:17.853Z,31.56
2018-05-25T11:05:12.854Z,29.44
2018-05-25T11:11:07.865Z,32.49
2018-05-25T11:17:02.854Z,31.8
2018-05-25T11:22:57.832Z,26.9
2018-05-25T11:28:52.882Z,29.09
2018-05-25T11:34:47.880Z,27.21
2018-05-25T11:40:42.898Z,25.52
2018-05-25T11:46:37.886Z,27.63
2018-05-25T11:52:32.907Z,23.83
2018-05-25T11:58:27.895Z,24.69
2018-05-25T12:04:22.872Z,23.84
2018-05-25T12:10:17.884Z,22.79
2018-05-25T12:16:12.911Z,24.54
2018-05-25T12:22:07.898Z,23.47
2018-05-25T12:28:02.923Z,23.82
2018-05-25T12:33:57.875Z,20.39
2018-05-25T12:39:52.985Z,21.56
2018-05-25T12:45:47.946Z,19
2018-05-25T12:51:42.911Z,20.61
2018-05-25T12:57:37.929Z,19
2018-05-25T13:03:32.914Z,17.22
2018-05-25T13:09:27.927Z,16.07
2018-05-25T13:15:22.900Z,16.7
2018-05-25T13:21:17.949Z,15.37
2018-05-25T13:27:12.944Z,17.97
2018-05-25T13:33:07.936Z,13.7
2018-05-25T13:39:02.908Z,15.95
2018-05-25T13:44:57.943Z,14.06
2018-05-25T13:50:52.926Z,14.12
2018-05-25T13:56:47.970Z,11.89
2018-05-25T14:02:42.969Z,13.51
2018-05-25T14:08:37.990Z,12.14
2018-05-25T14:14:32.936Z,11.4
2018-05-25T14:20:27.982Z,10.81
2018-05-25T14:26:23.051Z,10.92
2018-05-25T14:32:17.970Z,10.56
2018-05-25T14:38:12.975Z,10
2018-05-25T14:44:08.022Z,11.09
2018-05-25T14:50:03.148Z,9.19
2018-05-25T14:55:57.963Z,10.34
2018-05-25T15:01:52.979Z,10.18
2018-05-25T15:07:48.051Z,9.13
2018-05-25T15:13:42.971Z,8.96
2018-05-25T15:19:38.014Z,9.1
2018-05-25T15:25:32.993Z,9.21
2018-05-25T15:31:28.008Z,12.33
2018-05-25T15:37:22.998Z,9.4
2018-05-25T15:43:17.996Z,10.17
2018-05-25T15:49:13.031Z,12.49
2018-05-25T15:55:08.002Z,11.1
2018-05-25T16:01:03.010Z,12.03
2018-05-25T16:06:58.053Z,11.72
2018-05-25T16:12:53.027Z,13.4
2018-05-25T16:18:48.045Z,11.6
2018-05-25T16:24:43.081Z,10.74
2018-05-25T16:30:38.031Z,10.89
2018-05-25T16:36:33.028Z,10.35
2018-05-25T16:42:28.060Z,9.93
2018-05-25T16:48:23.075Z,11.37
2018-05-25T16:54:18.054Z,9.54
2018-05-25T17:00:13.624Z,8.99
2018-05-25T17:06:08.063Z,9.48
2018-05-25T17:12:03.069Z,9.28
2018-05-25T17:17:58.074Z,9.35
2018-05-25T17:23:53.084Z,9.4
2018-05-25T17:29:48.051Z,9.55
2018-05-25T17:35:43.075Z,9.23
2018-05-25T17:41:38.085Z,8.89
2018-05-25T17:47:33.123Z,12.33
2018-05-25T17:53:28.069Z,9.57
2018-05-25T17:59:23.094Z,16.61
2018-05-25T18:05:18.091Z,15.77
2018-05-25T18:11:13.064Z,17.15
2018-05-25T18:17:08.058Z,16.64
2018-05-25T18:23:03.189Z,23.25
2018-05-25T18:28:58.072Z,13.2
2018-05-25T18:34:53.081Z,10.79
2018-05-25T18:46:43.124Z,10.02
2018-05-25T18:52:38.111Z,10.73
2018-05-25T18:58:33.161Z,10.16
2018-05-25T19:04:28.092Z,9.43
2018-05-25T19:10:23.146Z,9.77
2018-05-25T19:16:18.124Z,8.99
2018-05-25T19:22:13.140Z,8.9
2018-05-25T19:28:08.141Z,9.26
2018-05-25T19:34:03.160Z,9.13
2018-05-25T19:39:58.152Z,8.95
2018-05-25T19:45:53.172Z,9.28
2018-05-25T19:51:48.180Z,10.63
2018-05-25T19:57:43.175Z,9
2018-05-25T20:03:38.132Z,10.47
2018-05-25T20:09:33.843Z,9.85
2018-05-25T20:15:28.214Z,9.37
2018-05-25T20:21:23.172Z,9.7
2018-05-25T20:27:18.161Z,8.85
2018-05-25T20:33:13.173Z,11.13
2018-05-25T20:39:08.214Z,10.77
2018-05-25T20:45:03.308Z,9.56
2018-05-25T20:50:58.187Z,9.9
2018-05-25T20:56:53.231Z,9.49
2018-05-25T21:02:48.148Z,9.83
2018-05-25T21:08:43.176Z,9.77
2018-05-25T21:14:38.198Z,9.18
2018-05-25T21:20:33.965Z,9.5
2018-05-25T21:26:28.218Z,9.89
2018-05-25T21:32:23.212Z,9.92
2018-05-25T21:38:18.279Z,8.58
2018-05-25T21:44:13.253Z,9.44
2018-05-25T21:50:08.219Z,9.96
2018-05-25T21:56:03.241Z,9.81
2018-05-25T22:01:58.180Z,9.44
2018-05-25T22:07:53.236Z,9.24
2018-05-25T22:13:48.277Z,8.28
2018-05-25T22:19:43.264Z,9.23
2018-05-25T22:25:38.268Z,8.78
2018-05-25T22:31:33.239Z,8.51
2018-05-25T22:37:28.231Z,8.57
2018-05-25T22:43:23.219Z,9.64
2018-05-25T22:49:18.257Z,9.9
2018-05-25T22:55:13.251Z,9.61
2018-05-25T23:01:08.239Z,11.03
2018-05-25T23:07:03.285Z,9.71
2018-05-25T23:12:58.262Z,10.38
2018-05-25T23:18:53.271Z,10.59
2018-05-25T23:24:48.271Z,10.58
2018-05-25T23:30:43.239Z,10.16
2018-05-25T23:36:38.279Z,10.21
2018-05-25T23:42:33.259Z,12.49
2018-05-25T23:48:28.327Z,11.54
2018-05-25T23:54:23.272Z,10.87
